createdAt,value
2023-01-20T00:00:26.724Z,9.745500
2023-01-20T00:01:26.655Z,9.745407
2023-01-20T00:02:26.687Z,9.745477
2023-01-20T00:03:26.670Z,9.745802
2023-01-20T00:04:26.632Z,9.746003
2023-01-20T00:05:26.644Z,9.745992
2023-01-20T00:06:26.614Z,9.746266
2023-01-20T00:07:26.606Z,9.745922
2023-01-20T00:08:26.600Z,9.745763
2023-01-20T00:09:26.598Z,9.745480
2023-01-20T00:10:26.611Z,9.745427
2023-01-20T00:11:26.575Z,9.745448
2023-01-20T00:12:26.563Z,9.745165
2023-01-20T00:13:26.557Z,9.745543
2023-01-20T00:14:26.549Z,9.745334
2023-01-20T00:15:26.566Z,9.745566
2023-01-20T00:16:26.543Z,9.745449
2023-01-20T00:17:26.529Z,9.745355
2023-01-20T00:18:26.521Z,9.745406
2023-01-20T00:19:26.519Z,9.745672
2023-01-20T00:20:26.541Z,9.745704
2023-01-20T00:21:26.501Z,9.745265
2023-01-20T00:22:26.487Z,9.745457
2023-01-20T00:23:26.486Z,9.745472
2023-01-20T00:24:26.477Z,9.745324
2023-01-20T00:25:26.502Z,9.745372
2023-01-20T00:26:26.464Z,9.745275
2023-01-20T00:27:26.459Z,9.745311
2023-01-20T00:28:26.449Z,9.745483
2023-01-20T00:29:26.441Z,9.745377
2023-01-20T00:30:26.461Z,9.745456
2023-01-20T00:31:26.504Z,9.745575
2023-01-20T00:32:26.418Z,9.745542
2023-01-20T00:33:26.411Z,9.745408
2023-01-20T00:34:26.422Z,9.745498
2023-01-20T00:35:26.424Z,9.745421
2023-01-20T00:36:26.392Z,9.745493
2023-01-20T00:37:26.388Z,9.745490
2023-01-20T00:38:26.378Z,9.745552
2023-01-20T00:39:26.371Z,9.745491
2023-01-20T00:40:26.387Z,9.745594
2023-01-20T00:41:26.363Z,9.745593
2023-01-20T00:42:26.344Z,9.745630
2023-01-20T00:43:26.341Z,9.745528
2023-01-20T00:44:26.337Z,9.745519
2023-01-20T00:45:26.355Z,9.745426
2023-01-20T00:46:26.348Z,9.745509
2023-01-20T00:47:26.309Z,9.745487
2023-01-20T00:48:26.311Z,9.745504
2023-01-20T00:49:26.300Z,9.745434
2023-01-20T00:50:26.312Z,9.745610
2023-01-20T00:51:26.280Z,9.745564
2023-01-20T00:52:26.278Z,9.745296
2023-01-20T00:53:26.265Z,9.745572
2023-01-20T00:54:26.258Z,9.745877
2023-01-20T00:55:26.280Z,9.745989
2023-01-20T00:56:26.240Z,9.745899
2023-01-20T00:57:26.232Z,9.745640
2023-01-20T00:58:26.225Z,9.745661
2023-01-20T00:59:26.215Z,9.745551
2023-01-20T01:00:26.310Z,9.745502
2023-01-20T01:01:26.210Z,9.745609
2023-01-20T01:02:26.208Z,9.745440
2023-01-20T01:03:26.187Z,9.745363
2023-01-20T01:04:26.179Z,9.745501
2023-01-20T01:05:26.194Z,9.745517
2023-01-20T01:06:26.165Z,9.745565
2023-01-20T01:07:26.163Z,9.745404
2023-01-20T01:08:26.156Z,9.745437
2023-01-20T01:09:26.158Z,9.745495
2023-01-20T01:10:26.183Z,9.745955
2023-01-20T01:11:26.133Z,9.745877
2023-01-20T01:12:26.121Z,9.745596
2023-01-20T01:13:26.118Z,9.745890
2023-01-20T01:14:26.103Z,9.745842
2023-01-20T01:15:26.122Z,9.745605
2023-01-20T01:16:26.136Z,9.745620
2023-01-20T01:17:26.089Z,9.745658
2023-01-20T01:18:26.073Z,9.745682
2023-01-20T01:19:26.073Z,9.745482
2023-01-20T01:20:26.086Z,9.745107
2023-01-20T01:21:26.059Z,9.745318
2023-01-20T01:22:26.044Z,9.745677
2023-01-20T01:23:26.041Z,9.745418
2023-01-20T01:24:26.035Z,9.745230
2023-01-20T01:25:26.051Z,9.745405
2023-01-20T01:26:26.021Z,9.745296
2023-01-20T01:27:26.015Z,9.745263
2023-01-20T01:28:26.003Z,9.745317
2023-01-20T01:29:25.996Z,9.745270
2023-01-20T01:30:26.036Z,9.745331
2023-01-20T01:31:26.059Z,9.745445
2023-01-20T01:32:25.971Z,9.745176
2023-01-20T01:33:25.962Z,9.745399
2023-01-20T01:34:25.959Z,9.745324
2023-01-20T01:35:25.975Z,9.745378
2023-01-20T01:36:25.946Z,9.745419
2023-01-20T01:37:25.935Z,9.745328
2023-01-20T01:38:25.929Z,9.745562
2023-01-20T01:39:25.920Z,9.745621
2023-01-20T01:40:25.937Z,9.745565
2023-01-20T01:41:25.904Z,9.745292
2023-01-20T01:42:25.903Z,9.745314
2023-01-20T01:43:25.889Z,9.745397
2023-01-20T01:44:25.898Z,9.745507
2023-01-20T01:45:25.919Z,9.745481
2023-01-20T01:46:25.870Z,9.745463
2023-01-20T01:47:25.857Z,9.745516
2023-01-20T01:48:25.851Z,9.745604
2023-01-20T01:49:25.845Z,9.745477
2023-01-20T01:50:25.874Z,9.745350
2023-01-20T01:51:25.834Z,9.745466
2023-01-20T01:52:25.825Z,9.745375
2023-01-20T01:53:25.816Z,9.745335
2023-01-20T01:54:25.811Z,9.745557
2023-01-20T01:55:25.831Z,9.745296
2023-01-20T01:56:25.796Z,9.745349
2023-01-20T01:57:25.787Z,9.745357
2023-01-20T01:58:25.789Z,9.745339
2023-01-20T01:59:25.771Z,9.745392
2023-01-20T02:00:25.770Z,9.745357
2023-01-20T02:01:25.866Z,9.745298
2023-01-20T02:02:25.773Z,9.745224
2023-01-20T02:03:25.743Z,9.745245
2023-01-20T02:04:25.741Z,9.745321
2023-01-20T02:05:25.756Z,9.745417
2023-01-20T02:06:25.720Z,9.745319
2023-01-20T02:07:25.716Z,9.745549
2023-01-20T02:08:25.716Z,9.745526
2023-01-20T02:09:25.702Z,9.745322
2023-01-20T02:10:25.691Z,9.745450
2023-01-20T02:11:25.709Z,9.745092
2023-01-20T02:12:25.674Z,9.744738
2023-01-20T02:13:25.666Z,9.745020
2023-01-20T02:14:25.654Z,9.744993
2023-01-20T02:15:26.658Z,9.744967
2023-01-20T02:16:25.695Z,9.745202
2023-01-20T02:17:25.640Z,9.745124
2023-01-20T02:18:25.636Z,9.744965
2023-01-20T02:19:25.627Z,9.745419
2023-01-20T02:20:25.617Z,9.744932
2023-01-20T02:21:25.633Z,9.744162
2023-01-20T02:22:25.618Z,9.744871
2023-01-20T02:23:25.598Z,9.745294
2023-01-20T02:24:25.591Z,9.745803
2023-01-20T02:25:25.577Z,9.745510
2023-01-20T02:26:25.598Z,9.744742
2023-01-20T02:27:25.565Z,9.745429
2023-01-20T02:28:25.563Z,9.745802
2023-01-20T02:29:25.554Z,9.745585
2023-01-20T02:30:25.562Z,9.745715
2023-01-20T02:31:25.580Z,9.745361
2023-01-20T02:32:25.527Z,9.745484
2023-01-20T02:33:25.541Z,9.745568
2023-01-20T02:34:25.512Z,9.745594
2023-01-20T02:35:25.518Z,9.745642
2023-01-20T02:36:25.517Z,9.745425
2023-01-20T02:37:25.496Z,9.745594
2023-01-20T02:38:25.484Z,9.745652
2023-01-20T02:39:27.425Z,9.745702
2023-01-20T02:40:25.472Z,9.745881
2023-01-20T02:41:25.488Z,9.745444
2023-01-20T02:42:25.463Z,9.745985
2023-01-20T02:43:25.448Z,9.745845
2023-01-20T02:44:25.435Z,9.745502
2023-01-20T02:45:25.545Z,9.745539
2023-01-20T02:46:25.447Z,9.745586
2023-01-20T02:47:25.416Z,9.745359
2023-01-20T02:48:25.404Z,9.745648
2023-01-20T02:49:25.410Z,9.745703
2023-01-20T02:50:25.388Z,9.745899
2023-01-20T02:51:25.405Z,9.745626
2023-01-20T02:52:25.377Z,9.745476
2023-01-20T02:53:25.363Z,9.745465
2023-01-20T02:54:25.354Z,9.745497
2023-01-20T02:55:25.350Z,9.745281
2023-01-20T02:56:25.367Z,9.744825
2023-01-20T02:57:25.334Z,9.745282
2023-01-20T02:58:25.347Z,9.745424
2023-01-20T02:59:25.320Z,9.745514
2023-01-20T03:00:25.316Z,9.745486
2023-01-20T03:01:25.412Z,9.745421
2023-01-20T03:02:25.300Z,9.745524
2023-01-20T03:03:25.379Z,9.745541
2023-01-20T03:04:25.285Z,9.745420
2023-01-20T03:05:25.307Z,9.745404
2023-01-20T03:06:25.315Z,9.745515
2023-01-20T03:07:25.258Z,9.745465
2023-01-20T03:08:25.253Z,9.745443
2023-01-20T03:09:25.242Z,9.745399
2023-01-20T03:10:25.242Z,9.745401
2023-01-20T03:11:25.269Z,9.745393
2023-01-20T03:12:25.225Z,9.745482
2023-01-20T03:13:25.211Z,9.745608
2023-01-20T03:14:25.210Z,9.745614
2023-01-20T03:15:25.192Z,9.745587
2023-01-20T03:16:25.280Z,9.745500
2023-01-20T03:17:25.186Z,9.745397
2023-01-20T03:18:26.175Z,9.745457
2023-01-20T03:19:25.173Z,9.745323
2023-01-20T03:20:25.172Z,9.745461
2023-01-20T03:21:25.162Z,9.745543
2023-01-20T03:22:25.168Z,9.745680
2023-01-20T03:23:25.142Z,9.745461
2023-01-20T03:24:25.136Z,9.745638
2023-01-20T03:25:25.125Z,9.745634
2023-01-20T03:26:25.119Z,9.745417
2023-01-20T03:27:25.134Z,9.745420
2023-01-20T03:28:25.127Z,9.745582
2023-01-20T03:29:25.090Z,9.745380
2023-01-20T03:30:25.164Z,9.745329
2023-01-20T03:31:25.274Z,9.745446
2023-01-20T03:32:25.067Z,9.745505
2023-01-20T03:33:25.085Z,9.745513
2023-01-20T03:34:25.054Z,9.745461
2023-01-20T03:35:25.052Z,9.745468
2023-01-20T03:36:25.049Z,9.745595
2023-01-20T03:37:25.035Z,9.745557
2023-01-20T03:38:25.049Z,9.745674
2023-01-20T03:39:25.025Z,9.745667
2023-01-20T03:40:25.010Z,9.745493
2023-01-20T03:41:25.000Z,9.745297
2023-01-20T03:42:24.998Z,9.745474
2023-01-20T03:43:25.010Z,9.745374
2023-01-20T03:44:24.979Z,9.745410
2023-01-20T03:45:25.971Z,9.745232
2023-01-20T03:46:24.964Z,9.745174
2023-01-20T03:47:24.955Z,9.744708
2023-01-20T03:48:24.972Z,9.745244
2023-01-20T03:49:24.943Z,9.744782
2023-01-20T03:50:24.935Z,9.742839
2023-01-20T03:51:24.927Z,9.744327
2023-01-20T03:52:47.617Z,9.744871
2023-01-20T03:53:25.939Z,9.745370
2023-01-20T03:54:24.911Z,9.746084
2023-01-20T03:55:24.903Z,9.745965
2023-01-20T03:56:24.911Z,9.746006
2023-01-20T03:57:24.884Z,9.746128
2023-01-20T03:58:24.907Z,9.745813
2023-01-20T03:59:24.869Z,9.745596
2023-01-20T04:00:24.856Z,9.746475
2023-01-20T04:01:24.947Z,9.746538
2023-01-20T04:02:24.932Z,9.745662
2023-01-20T04:03:24.902Z,9.745587
2023-01-20T04:04:24.858Z,9.745502
2023-01-20T04:05:24.823Z,9.745607
2023-01-20T04:06:24.820Z,9.746333
2023-01-20T04:07:24.872Z,9.746011
2023-01-20T04:08:24.805Z,9.745894
2023-01-20T04:09:24.820Z,9.745537
2023-01-20T04:10:24.786Z,9.745193
2023-01-20T04:11:24.771Z,9.745846
2023-01-20T04:12:24.773Z,9.745940
2023-01-20T04:13:24.760Z,9.747066
2023-01-20T04:14:24.775Z,9.747584
2023-01-20T04:15:24.768Z,9.746697
2023-01-20T04:16:24.739Z,9.746228
2023-01-20T04:17:24.730Z,9.746228
2023-01-20T04:18:24.724Z,9.746336
2023-01-20T04:19:24.737Z,9.745599
2023-01-20T04:20:24.740Z,9.745599
2023-01-20T04:21:24.698Z,9.745599
2023-01-20T04:22:24.702Z,9.745599
2023-01-20T04:23:24.686Z,9.745599
2023-01-20T04:24:24.701Z,9.745599
2023-01-20T04:25:24.669Z,9.745599
2023-01-20T04:26:24.664Z,9.745599
2023-01-20T04:27:24.650Z,9.745599
2023-01-20T04:28:24.656Z,9.746929
2023-01-20T04:29:24.666Z,9.746623
2023-01-20T04:30:24.679Z,9.746623
2023-01-20T04:31:30.643Z,9.746623
2023-01-20T04:32:26.616Z,9.746623
2023-01-20T04:33:24.616Z,9.746452
2023-01-20T04:34:24.629Z,9.746389
2023-01-20T04:35:24.598Z,9.746389
2023-01-20T04:36:24.613Z,9.746389
2023-01-20T04:37:24.576Z,9.746389
2023-01-20T04:38:24.573Z,9.746389
2023-01-20T04:39:24.598Z,9.745363
2023-01-20T04:40:24.557Z,9.744935
2023-01-20T04:41:24.550Z,9.745160
2023-01-20T04:42:24.542Z,9.744970
2023-01-20T04:43:24.536Z,9.745140
2023-01-20T04:44:24.560Z,9.744338
2023-01-20T04:45:24.520Z,9.744843
2023-01-20T04:46:24.539Z,9.745316
2023-01-20T04:47:24.510Z,9.745530
2023-01-20T04:48:24.499Z,9.745434
2023-01-20T04:49:24.514Z,9.745478
2023-01-20T04:50:24.489Z,9.745327
2023-01-20T04:51:24.479Z,9.745064
2023-01-20T04:52:24.484Z,9.745274
2023-01-20T04:53:24.462Z,9.745359
2023-01-20T04:54:24.481Z,9.745455
2023-01-20T04:55:24.450Z,9.745293
2023-01-20T04:56:24.444Z,9.745058
2023-01-20T04:57:24.431Z,9.745065
2023-01-20T04:58:24.431Z,9.745196
2023-01-20T04:59:24.441Z,9.745358
2023-01-20T05:00:24.411Z,9.745056
2023-01-20T05:01:24.457Z,9.745141
2023-01-20T05:02:24.446Z,9.745378
2023-01-20T05:03:24.384Z,9.744456
2023-01-20T05:04:24.407Z,9.745424
2023-01-20T05:05:24.368Z,9.745572
2023-01-20T05:06:24.366Z,9.745750
2023-01-20T05:07:24.356Z,9.745494
2023-01-20T05:08:24.357Z,9.745614
2023-01-20T05:09:24.366Z,9.745526
2023-01-20T05:10:24.350Z,9.745340
2023-01-20T05:11:24.331Z,9.745524
2023-01-20T05:12:24.326Z,9.745718
2023-01-20T05:13:24.348Z,9.745531
2023-01-20T05:14:24.334Z,9.745523
2023-01-20T05:15:24.310Z,9.745485
2023-01-20T05:16:24.358Z,9.745727
2023-01-20T05:17:24.278Z,9.745614
2023-01-20T05:18:24.270Z,9.745533
2023-01-20T05:19:24.267Z,9.745728
2023-01-20T05:20:24.278Z,9.745639
2023-01-20T05:21:24.250Z,9.745679
2023-01-20T05:22:24.240Z,9.745491
2023-01-20T05:23:24.235Z,9.745704
2023-01-20T05:24:24.226Z,9.745632
2023-01-20T05:25:24.240Z,9.745462
2023-01-20T05:26:24.268Z,9.745656
2023-01-20T05:27:24.201Z,9.745589
2023-01-20T05:28:24.199Z,9.745646
2023-01-20T05:29:24.191Z,9.745691
2023-01-20T05:30:24.265Z,9.745647
2023-01-20T05:31:24.240Z,9.745480
2023-01-20T05:32:24.170Z,9.745437
2023-01-20T05:33:24.162Z,9.745417
2023-01-20T05:34:24.150Z,9.745455
2023-01-20T05:35:24.169Z,9.745608
2023-01-20T05:36:24.137Z,9.745461
2023-01-20T05:37:24.124Z,9.745607
2023-01-20T05:38:24.129Z,9.745510
2023-01-20T05:39:24.111Z,9.745493
2023-01-20T05:40:24.144Z,9.745452
2023-01-20T05:41:24.097Z,9.745563
2023-01-20T05:42:24.097Z,9.745265
2023-01-20T05:43:24.081Z,9.745590
2023-01-20T05:44:24.074Z,9.745699
2023-01-20T05:45:24.103Z,9.745570
2023-01-20T05:46:24.114Z,9.745485
2023-01-20T05:47:24.055Z,9.745509
2023-01-20T05:48:24.047Z,9.745499
2023-01-20T05:49:24.035Z,9.745362
2023-01-20T05:50:24.031Z,9.744855
2023-01-20T05:51:24.054Z,9.745441
2023-01-20T05:52:24.017Z,9.745472
2023-01-20T05:53:24.007Z,9.745175
2023-01-20T05:54:24.004Z,9.745346
2023-01-20T05:55:23.989Z,9.745432
2023-01-20T05:56:24.010Z,9.745791
2023-01-20T05:57:23.977Z,9.745482
2023-01-20T05:58:23.976Z,9.745434
2023-01-20T05:59:23.979Z,9.745444
2023-01-20T06:00:23.957Z,9.745303
2023-01-20T06:01:24.161Z,9.745461
2023-01-20T06:02:23.999Z,9.745017
2023-01-20T06:03:23.944Z,9.745314
2023-01-20T06:04:23.925Z,9.745405
2023-01-20T06:05:23.916Z,9.745353
2023-01-20T06:06:23.938Z,9.745466
2023-01-20T06:07:23.900Z,9.745563
2023-01-20T06:08:23.892Z,9.745579
2023-01-20T06:09:23.887Z,9.745516
2023-01-20T06:10:23.880Z,9.745661
2023-01-20T06:11:23.893Z,9.745074
2023-01-20T06:12:23.869Z,9.745361
2023-01-20T06:13:23.861Z,9.745447
2023-01-20T06:14:23.844Z,9.745393
2023-01-20T06:15:23.848Z,9.745404
2023-01-20T06:16:23.898Z,9.745451
2023-01-20T06:17:23.831Z,9.745420
2023-01-20T06:18:23.818Z,9.745257
2023-01-20T06:19:23.815Z,9.745494
2023-01-20T06:20:23.813Z,9.745555
2023-01-20T06:21:23.821Z,9.745586
2023-01-20T06:22:23.803Z,9.745678
2023-01-20T06:23:23.787Z,9.745583
2023-01-20T06:24:23.775Z,9.745389
2023-01-20T06:25:23.758Z,9.745521
2023-01-20T06:26:24.791Z,9.745470
2023-01-20T06:27:23.766Z,9.745524
2023-01-20T06:28:23.744Z,9.745520
2023-01-20T06:29:23.745Z,9.745429
2023-01-20T06:30:23.742Z,9.745342
2023-01-20T06:31:23.797Z,9.745592
2023-01-20T06:32:23.722Z,9.745425
2023-01-20T06:33:23.713Z,9.745199
2023-01-20T06:34:23.723Z,9.745137
2023-01-20T06:35:23.713Z,9.745260
2023-01-20T06:36:23.741Z,9.745255
2023-01-20T06:37:23.682Z,9.745169
2023-01-20T06:38:23.677Z,9.745330
2023-01-20T06:39:23.665Z,9.745467
2023-01-20T06:40:23.662Z,9.745456
2023-01-20T06:41:23.679Z,9.745522
2023-01-20T06:42:23.652Z,9.745675
2023-01-20T06:43:23.640Z,9.745503
2023-01-20T06:44:23.631Z,9.745260
2023-01-20T06:45:23.626Z,9.745504
2023-01-20T06:46:23.678Z,9.745582
2023-01-20T06:47:23.610Z,9.745280
2023-01-20T06:48:23.608Z,9.745357
2023-01-20T06:49:23.601Z,9.745409
2023-01-20T06:50:23.584Z,9.745535
2023-01-20T06:51:23.633Z,9.745591
2023-01-20T06:52:23.567Z,9.745642
2023-01-20T06:53:23.574Z,9.745659
2023-01-20T06:54:23.567Z,9.745811
2023-01-20T06:55:23.574Z,9.745455
2023-01-20T06:56:23.587Z,9.745636
2023-01-20T06:57:23.535Z,9.745377
2023-01-20T06:58:23.554Z,9.745315
2023-01-20T06:59:23.541Z,9.744870
2023-01-20T07:00:23.522Z,9.745198
2023-01-20T07:01:23.685Z,9.745812
2023-01-20T07:02:23.555Z,9.745261
2023-01-20T07:03:23.493Z,9.745113
2023-01-20T07:04:23.489Z,9.745477
2023-01-20T07:05:23.476Z,9.745512
2023-01-20T07:06:23.499Z,9.745454
2023-01-20T07:07:23.462Z,9.745688
2023-01-20T07:08:23.456Z,9.745541
2023-01-20T07:09:23.455Z,9.746043
2023-01-20T07:10:23.440Z,9.745186
2023-01-20T07:11:23.467Z,9.745558
2023-01-20T07:12:23.431Z,9.745667
2023-01-20T07:13:23.419Z,9.745557
2023-01-20T07:14:23.414Z,9.745611
2023-01-20T07:15:23.406Z,9.745480
2023-01-20T07:16:23.450Z,9.745579
2023-01-20T07:17:23.400Z,9.745577
2023-01-20T07:18:23.383Z,9.745476
2023-01-20T07:19:23.375Z,9.745103
2023-01-20T07:20:23.373Z,9.745500
2023-01-20T07:21:26.107Z,9.746328
2023-01-20T07:22:24.351Z,9.745767
2023-01-20T07:23:23.365Z,9.745625
2023-01-20T07:24:23.340Z,9.745701
2023-01-20T07:25:23.329Z,9.745425
2023-01-20T07:26:23.345Z,9.745409
2023-01-20T07:27:23.324Z,9.745766
2023-01-20T07:28:23.321Z,9.745494
2023-01-20T07:29:23.308Z,9.745643
2023-01-20T07:30:23.365Z,9.745879
2023-01-20T07:31:23.351Z,9.745529
2023-01-20T07:32:23.282Z,9.745816
2023-01-20T07:33:23.286Z,9.745991
2023-01-20T07:34:23.272Z,9.746218
2023-01-20T07:35:23.265Z,9.746037
2023-01-20T07:36:23.289Z,9.745784
2023-01-20T07:37:23.247Z,9.745579
2023-01-20T07:38:23.238Z,9.745586
2023-01-20T07:39:23.234Z,9.745730
2023-01-20T07:40:23.228Z,9.745807
2023-01-20T07:41:23.252Z,9.746122
2023-01-20T07:42:23.215Z,9.746029
2023-01-20T07:43:23.212Z,9.745747
2023-01-20T07:44:23.204Z,9.745478
2023-01-20T07:45:23.196Z,9.745517
2023-01-20T07:46:23.189Z,9.745538
2023-01-20T07:47:23.210Z,9.745332
2023-01-20T07:48:23.171Z,9.745417
2023-01-20T07:49:23.163Z,9.745309
2023-01-20T07:50:23.161Z,9.745165
2023-01-20T07:51:23.150Z,9.745275
2023-01-20T07:52:24.176Z,9.745517
2023-01-20T07:53:23.135Z,9.745395
2023-01-20T07:54:23.133Z,9.745424
2023-01-20T07:55:25.087Z,9.745410
2023-01-20T07:56:24.122Z,9.745493
2023-01-20T07:57:23.125Z,9.745354
2023-01-20T07:58:23.091Z,9.745418
2023-01-20T07:59:23.094Z,9.745431
2023-01-20T08:00:23.074Z,9.745455
2023-01-20T08:01:23.206Z,9.745437
2023-01-20T08:02:23.091Z,9.745345
2023-01-20T08:03:23.059Z,9.745221
2023-01-20T08:04:23.056Z,9.745325
2023-01-20T08:05:23.041Z,9.745435
2023-01-20T08:06:23.044Z,9.745527
2023-01-20T08:07:23.081Z,9.745508
2023-01-20T08:08:23.054Z,9.745564
2023-01-20T08:09:23.021Z,9.745575
2023-01-20T08:10:23.018Z,9.745509
2023-01-20T08:11:22.999Z,9.745346
2023-01-20T08:12:23.023Z,9.745499
2023-01-20T08:13:22.983Z,9.745566
2023-01-20T08:14:22.972Z,9.745414
2023-01-20T08:15:22.962Z,9.745407
2023-01-20T08:16:23.000Z,9.745368
2023-01-20T08:17:22.974Z,9.745425
2023-01-20T08:18:22.964Z,9.745045
2023-01-20T08:19:22.935Z,9.745116
2023-01-20T08:20:22.921Z,9.745172
2023-01-20T08:21:22.929Z,9.745152
2023-01-20T08:22:22.915Z,9.745259
2023-01-20T08:23:22.924Z,9.745385
2023-01-20T08:24:22.901Z,9.745539
2023-01-20T08:25:22.908Z,9.745199
2023-01-20T08:26:22.889Z,9.745399
2023-01-20T08:27:22.867Z,9.745158
2023-01-20T08:28:22.882Z,9.745528
2023-01-20T08:29:22.875Z,9.745625
2023-01-20T08:30:22.852Z,9.745369
2023-01-20T08:31:22.954Z,9.745729
2023-01-20T08:32:22.834Z,9.745473
2023-01-20T08:33:22.854Z,9.745537
2023-01-20T08:34:22.815Z,9.745633
2023-01-20T08:35:22.805Z,9.745757
2023-01-20T08:36:22.897Z,9.745897
2023-01-20T08:37:22.795Z,9.745500
2023-01-20T08:38:22.808Z,9.745536
2023-01-20T08:39:22.787Z,9.745298
2023-01-20T08:40:22.776Z,9.745422
2023-01-20T08:41:22.765Z,9.745402
2023-01-20T08:42:22.748Z,9.745566
2023-01-20T08:43:22.764Z,9.745253
2023-01-20T08:44:22.728Z,9.744649
2023-01-20T08:45:22.720Z,9.744706
2023-01-20T08:46:22.850Z,9.745198
2023-01-20T08:47:22.703Z,9.745386
2023-01-20T08:48:22.724Z,9.745606
2023-01-20T08:49:22.690Z,9.745599
2023-01-20T08:50:22.691Z,9.745960
2023-01-20T08:51:22.768Z,9.745583
2023-01-20T08:52:22.675Z,9.745434
2023-01-20T08:53:22.689Z,9.745826
2023-01-20T08:54:22.657Z,9.745933
2023-01-20T08:55:22.652Z,9.745780
2023-01-20T08:56:22.647Z,9.745519
2023-01-20T08:57:22.637Z,9.745470
2023-01-20T08:58:25.221Z,9.745616
2023-01-20T08:59:22.618Z,9.745761
2023-01-20T09:00:22.607Z,9.745423
2023-01-20T09:01:22.671Z,9.745479
2023-01-20T09:02:22.609Z,9.746064
2023-01-20T09:03:22.610Z,9.745947
2023-01-20T09:04:22.588Z,9.746095
2023-01-20T09:05:22.581Z,9.745906
2023-01-20T09:06:22.566Z,9.745687
2023-01-20T09:07:22.555Z,9.745357
2023-01-20T09:08:22.586Z,9.745343
2023-01-20T09:09:22.542Z,9.745306
2023-01-20T09:10:22.534Z,9.745173
2023-01-20T09:11:22.541Z,9.745067
2023-01-20T09:12:22.517Z,9.745517
2023-01-20T09:13:22.575Z,9.745847
2023-01-20T09:14:22.566Z,9.745786
2023-01-20T09:15:24.155Z,9.745625
2023-01-20T09:16:22.502Z,9.745693
2023-01-20T09:17:22.487Z,9.745700
2023-01-20T09:18:22.475Z,9.745707
2023-01-20T09:19:22.497Z,9.745577
2023-01-20T09:20:22.539Z,9.745568
2023-01-20T09:21:22.457Z,9.745550
2023-01-20T09:22:22.446Z,9.745563
2023-01-20T09:23:22.439Z,9.745627
2023-01-20T09:24:22.457Z,9.745814
2023-01-20T09:25:22.422Z,9.745525
2023-01-20T09:26:35.012Z,9.745632
2023-01-20T09:27:24.404Z,9.745652
2023-01-20T09:28:22.393Z,9.745661
2023-01-20T09:29:23.412Z,9.745456
2023-01-20T09:30:22.385Z,9.745431
2023-01-20T09:31:22.472Z,9.745557
2023-01-20T09:32:22.372Z,9.745665
2023-01-20T09:33:22.366Z,9.745717
2023-01-20T09:34:22.393Z,9.745276
2023-01-20T09:35:22.397Z,9.744998
2023-01-20T09:36:22.365Z,9.745343
2023-01-20T09:37:22.345Z,9.745186
2023-01-20T09:38:22.329Z,9.745565
2023-01-20T09:39:22.368Z,9.745667
2023-01-20T09:40:22.382Z,9.745736
2023-01-20T09:41:22.324Z,9.745450
2023-01-20T09:42:22.299Z,9.745405
2023-01-20T09:43:22.282Z,9.745492
2023-01-20T09:44:22.305Z,9.745596
2023-01-20T09:45:22.278Z,9.745556
2023-01-20T09:46:22.314Z,9.745398
2023-01-20T09:47:22.269Z,9.745539
2023-01-20T09:48:22.248Z,9.745555
2023-01-20T09:49:22.273Z,9.746137
2023-01-20T09:50:22.237Z,9.745821
2023-01-20T09:51:22.222Z,9.745549
2023-01-20T09:52:22.218Z,9.745572
2023-01-20T09:53:22.228Z,9.745765
2023-01-20T09:54:22.233Z,9.745674
2023-01-20T09:55:22.198Z,9.745579
2023-01-20T09:56:22.188Z,9.745411
2023-01-20T09:57:22.182Z,9.745319
2023-01-20T09:58:22.176Z,9.745050
2023-01-20T09:59:22.172Z,9.745186
2023-01-20T10:00:22.187Z,9.745624
2023-01-20T10:01:22.229Z,9.745548
2023-01-20T10:02:22.141Z,9.745750
2023-01-20T10:03:22.131Z,9.745834
2023-01-20T10:04:22.121Z,9.745483
2023-01-20T10:05:22.171Z,9.745152
2023-01-20T10:06:22.119Z,9.745583
2023-01-20T10:07:22.108Z,9.745157
2023-01-20T10:08:22.095Z,9.745332
2023-01-20T10:09:22.100Z,9.746092
2023-01-20T10:10:22.109Z,9.745732
2023-01-20T10:11:22.136Z,9.746301
2023-01-20T10:12:22.070Z,9.746445
2023-01-20T10:13:22.058Z,9.745503
2023-01-20T10:14:22.049Z,9.745254
2023-01-20T10:15:22.071Z,9.745568
2023-01-20T10:16:22.190Z,9.745493
2023-01-20T10:17:22.019Z,9.745497
2023-01-20T10:18:22.741Z,9.745516
2023-01-20T10:19:22.034Z,9.745816
2023-01-20T10:20:22.025Z,9.745914
2023-01-20T10:21:22.001Z,9.745444
2023-01-20T10:22:21.990Z,9.745728
2023-01-20T10:23:21.989Z,9.746076
2023-01-20T10:24:21.968Z,9.745594
2023-01-20T10:25:21.997Z,9.745764
2023-01-20T10:26:21.969Z,9.745571
2023-01-20T10:27:21.944Z,9.745564
2023-01-20T10:28:21.942Z,9.746065
2023-01-20T10:29:21.938Z,9.745794
2023-01-20T10:30:21.973Z,9.745478
2023-01-20T10:31:21.969Z,9.745493
2023-01-20T10:32:21.900Z,9.745819
2023-01-20T10:33:21.898Z,9.745353
2023-01-20T10:34:21.886Z,9.745266
2023-01-20T10:35:21.907Z,9.745319
2023-01-20T10:36:21.880Z,9.745203
2023-01-20T10:37:21.876Z,9.745678
2023-01-20T10:38:21.895Z,9.745745
2023-01-20T10:39:21.875Z,9.745851
2023-01-20T10:40:21.866Z,9.745694
2023-01-20T10:41:21.834Z,9.745848
2023-01-20T10:42:21.825Z,9.746269
2023-01-20T10:43:21.814Z,9.745992
2023-01-20T10:44:21.806Z,9.745694
2023-01-20T10:45:21.832Z,9.745680
2023-01-20T10:46:21.831Z,9.745446
2023-01-20T10:47:21.782Z,9.745770
2023-01-20T10:48:21.773Z,9.745579
2023-01-20T10:49:21.774Z,9.745332
2023-01-20T10:50:21.784Z,9.745250
2023-01-20T10:51:21.755Z,9.745441
2023-01-20T10:52:21.744Z,9.745454
2023-01-20T10:53:21.738Z,9.745502
2023-01-20T10:54:21.723Z,9.745862
2023-01-20T10:55:21.756Z,9.745901
2023-01-20T10:56:21.697Z,9.745482
2023-01-20T10:57:22.719Z,9.745437
2023-01-20T10:58:21.696Z,9.745377
2023-01-20T10:59:21.680Z,9.745464
2023-01-20T11:00:21.714Z,9.745479
2023-01-20T11:01:21.714Z,9.745380
2023-01-20T11:02:21.792Z,9.745473
2023-01-20T11:03:21.704Z,9.745715
2023-01-20T11:04:21.640Z,9.745817
2023-01-20T11:05:21.680Z,9.745216
2023-01-20T11:06:21.650Z,9.745270
2023-01-20T11:07:21.627Z,9.745570
2023-01-20T11:08:21.616Z,9.745240
2023-01-20T11:09:21.609Z,9.745302
2023-01-20T11:10:21.633Z,9.745050
2023-01-20T11:11:21.596Z,9.745421
2023-01-20T11:12:21.597Z,9.745456
2023-01-20T11:13:21.610Z,9.745765
2023-01-20T11:14:21.572Z,9.745639
2023-01-20T11:15:21.560Z,9.745509
2023-01-20T11:16:21.679Z,9.745124
2023-01-20T11:17:21.544Z,9.745401
2023-01-20T11:18:21.544Z,9.745295
2023-01-20T11:19:21.536Z,9.745313
2023-01-20T11:20:21.524Z,9.745545
2023-01-20T11:21:21.541Z,9.745744
2023-01-20T11:22:21.498Z,9.745298
2023-01-20T11:23:21.549Z,9.745557
2023-01-20T11:24:21.487Z,9.745459
2023-01-20T11:25:21.478Z,9.745360
2023-01-20T11:26:21.508Z,9.745125
2023-01-20T11:27:21.471Z,9.745478
2023-01-20T11:28:21.480Z,9.745478
2023-01-20T11:29:21.466Z,9.745404
2023-01-20T11:30:21.437Z,9.745394
2023-01-20T11:31:21.530Z,9.745435
2023-01-20T11:32:23.657Z,9.745390
2023-01-20T11:33:21.450Z,9.745398
2023-01-20T11:34:21.427Z,9.745490
2023-01-20T11:35:21.396Z,9.745480
2023-01-20T11:36:21.427Z,9.745690
2023-01-20T11:37:21.386Z,9.745492
2023-01-20T11:38:21.380Z,9.745433
2023-01-20T11:39:21.365Z,9.745483
2023-01-20T11:40:21.362Z,9.745360
2023-01-20T11:41:21.410Z,9.745465
2023-01-20T11:42:21.348Z,9.745523
2023-01-20T11:43:21.345Z,9.745467
2023-01-20T11:44:21.339Z,9.745503